sensor_id;sensor_type;location;lat;lon;timestamp;temperature;humidity
20400;DHT22;10359;53.596;22.520;2024-02-16T00:00:18;7.30;99.90
20400;DHT22;10359;53.596;22.520;2024-02-16T00:03:08;7.20;99.90
20400;DHT22;10359;53.596;22.520;2024-02-16T00:06:00;7.30;99.90
20400;DHT22;10359;53.596;22.520;2024-02-16T00:08:50;7.30;99.90
20400;DHT22;10359;53.596;22.520;2024-02-16T00:11:40;7.30;99.90
20400;DHT22;10359;53.596;22.520;2024-02-16T00:14:30;7.20;99.90
20400;DHT22;10359;53.596;22.520;2024-02-16T00:17:19;7.20;99.90
20400;DHT22;10359;53.596;22.520;2024-02-16T00:20:09;7.20;99.90
20400;DHT22;10359;53.596;22.520;2024-02-16T00:23:02;7.30;99.90
20400;DHT22;10359;53.596;22.520;2024-02-16T00:25:51;7.20;99.90
20400;DHT22;10359;53.596;22.520;2024-02-16T00:28:41;7.20;99.90
20400;DHT22;10359;53.596;22.520;2024-02-16T00:31:31;7.20;99.90
20400;DHT22;10359;53.596;22.520;2024-02-16T00:34:21;7.20;99.90
20400;DHT22;10359;53.596;22.520;2024-02-16T00:37:11;7.20;99.90
20400;DHT22;10359;53.596;22.520;2024-02-16T00:40:02;7.10;99.90
20400;DHT22;10359;53.596;22.520;2024-02-16T00:42:52;7.20;99.90
20400;DHT22;10359;53.596;22.520;2024-02-16T00:45:42;7.20;99.90
20400;DHT22;10359;53.596;22.520;2024-02-16T00:48:32;7.20;99.90
20400;DHT22;10359;53.596;22.520;2024-02-16T00:51:22;7.20;99.90
20400;DHT22;10359;53.596;22.520;2024-02-16T00:54:14;7.10;99.90
20400;DHT22;10359;53.596;22.520;2024-02-16T00:57:05;7.10;99.90
20400;DHT22;10359;53.596;22.520;2024-02-16T00:59:55;7.20;99.90
20400;DHT22;10359;53.596;22.520;2024-02-16T01:02:44;7.10;99.90
20400;DHT22;10359;53.596;22.520;2024-02-16T01:05:34;7.20;99.90
20400;DHT22;10359;53.596;22.520;2024-02-16T01:08:24;7.20;99.90
20400;DHT22;10359;53.596;22.520;2024-02-16T01:11:15;7.20;99.90
20400;DHT22;10359;53.596;22.520;2024-02-16T01:14:06;7.20;99.90
20400;DHT22;10359;53.596;22.520;2024-02-16T01:16:56;7.10;99.90
20400;DHT22;10359;53.596;22.520;2024-02-16T01:19:45;7.10;99.90
20400;DHT22;10359;53.596;22.520;2024-02-16T01:22:36;7.10;99.90
20400;DHT22;10359;53.596;22.520;2024-02-16T01:25:25;7.10;99.90
20400;DHT22;10359;53.596;22.520;2024-02-16T01:28:15;7.10;99.90
20400;DHT22;10359;53.596;22.520;2024-02-16T01:31:06;7.20;99.90
20400;DHT22;10359;53.596;22.520;2024-02-16T01:33:57;7.20;99.90
20400;DHT22;10359;53.596;22.520;2024-02-16T01:36:47;7.10;99.90
20400;DHT22;10359;53.596;22.520;2024-02-16T01:39:37;7.10;99.90
20400;DHT22;10359;53.596;22.520;2024-02-16T01:42:27;7.10;99.90
20400;DHT22;10359;53.596;22.520;2024-02-16T01:45:16;7.00;99.90
20400;DHT22;10359;53.596;22.520;2024-02-16T01:48:07;6.90;99.90
20400;DHT22;10359;53.596;22.520;2024-02-16T01:50:58;7.00;99.90
20400;DHT22;10359;53.596;22.520;2024-02-16T01:53:49;7.00;99.90
20400;DHT22;10359;53.596;22.520;2024-02-16T01:56:39;7.00;99.90
20400;DHT22;10359;53.596;22.520;2024-02-16T01:59:29;7.10;99.90
20400;DHT22;10359;53.596;22.520;2024-02-16T02:02:21;7.10;99.90
20400;DHT22;10359;53.596;22.520;2024-02-16T02:05:12;7.00;99.90
20400;DHT22;10359;53.596;22.520;2024-02-16T02:08:09;7.00;99.90
20400;DHT22;10359;53.596;22.520;2024-02-16T02:10:59;7.00;99.90
20400;DHT22;10359;53.596;22.520;2024-02-16T02:13:50;7.00;99.90
20400;DHT22;10359;53.596;22.520;2024-02-16T02:16:40;6.90;99.90
20400;DHT22;10359;53.596;22.520;2024-02-16T02:19:41;6.90;99.90
20400;DHT22;10359;53.596;22.520;2024-02-16T02:22:33;7.00;99.90
20400;DHT22;10359;53.596;22.520;2024-02-16T02:25:22;7.00;99.90
20400;DHT22;10359;53.596;22.520;2024-02-16T02:28:14;7.00;99.90
20400;DHT22;10359;53.596;22.520;2024-02-16T02:31:05;6.90;99.90
20400;DHT22;10359;53.596;22.520;2024-02-16T02:33:56;7.00;99.90
20400;DHT22;10359;53.596;22.520;2024-02-16T02:36:46;7.00;99.90
20400;DHT22;10359;53.596;22.520;2024-02-16T02:39:38;7.00;99.90
20400;DHT22;10359;53.596;22.520;2024-02-16T02:42:28;7.00;99.90
20400;DHT22;10359;53.596;22.520;2024-02-16T02:45:17;7.00;99.90
20400;DHT22;10359;53.596;22.520;2024-02-16T02:48:10;7.10;99.90
20400;DHT22;10359;53.596;22.520;2024-02-16T02:51:00;7.10;99.90
20400;DHT22;10359;53.596;22.520;2024-02-16T02:53:50;7.10;99.90
20400;DHT22;10359;53.596;22.520;2024-02-16T02:56:41;7.20;99.90
20400;DHT22;10359;53.596;22.520;2024-02-16T02:59:31;7.10;99.90
20400;DHT22;10359;53.596;22.520;2024-02-16T03:02:20;7.00;99.90
20400;DHT22;10359;53.596;22.520;2024-02-16T03:05:10;7.10;99.90
20400;DHT22;10359;53.596;22.520;2024-02-16T03:08:00;7.20;99.90
20400;DHT22;10359;53.596;22.520;2024-02-16T03:10:50;7.10;99.90
20400;DHT22;10359;53.596;22.520;2024-02-16T03:13:41;7.00;99.90
20400;DHT22;10359;53.596;22.520;2024-02-16T03:16:31;7.00;99.90
20400;DHT22;10359;53.596;22.520;2024-02-16T03:19:22;7.00;99.90
20400;DHT22;10359;53.596;22.520;2024-02-16T03:22:11;7.10;99.90
20400;DHT22;10359;53.596;22.520;2024-02-16T03:25:01;7.10;99.90
20400;DHT22;10359;53.596;22.520;2024-02-16T03:27:51;7.00;99.90
20400;DHT22;10359;53.596;22.520;2024-02-16T03:30:44;7.00;99.90
20400;DHT22;10359;53.596;22.520;2024-02-16T03:33:33;7.00;99.90
20400;DHT22;10359;53.596;22.520;2024-02-16T03:36:23;6.90;99.90
20400;DHT22;10359;53.596;22.520;2024-02-16T03:39:12;6.90;99.90
20400;DHT22;10359;53.596;22.520;2024-02-16T03:42:07;6.90;99.90
20400;DHT22;10359;53.596;22.520;2024-02-16T03:44:57;6.90;99.90
20400;DHT22;10359;53.596;22.520;2024-02-16T03:47:48;6.90;99.90
20400;DHT22;10359;53.596;22.520;2024-02-16T03:50:40;6.90;99.90
20400;DHT22;10359;53.596;22.520;2024-02-16T03:53:30;6.80;99.90
20400;DHT22;10359;53.596;22.520;2024-02-16T03:56:26;6.80;99.90
20400;DHT22;10359;53.596;22.520;2024-02-16T03:59:21;6.90;99.90
20400;DHT22;10359;53.596;22.520;2024-02-16T04:02:11;6.90;99.90
20400;DHT22;10359;53.596;22.520;2024-02-16T04:05:03;6.90;99.90
20400;DHT22;10359;53.596;22.520;2024-02-16T04:07:53;6.90;99.90
20400;DHT22;10359;53.596;22.520;2024-02-16T04:10:42;6.90;99.90
20400;DHT22;10359;53.596;22.520;2024-02-16T04:13:34;6.90;99.90
20400;DHT22;10359;53.596;22.520;2024-02-16T04:16:24;6.90;99.90
20400;DHT22;10359;53.596;22.520;2024-02-16T04:19:15;6.90;99.90
20400;DHT22;10359;53.596;22.520;2024-02-16T04:22:07;7.00;99.90
20400;DHT22;10359;53.596;22.520;2024-02-16T04:24:56;6.90;99.90
20400;DHT22;10359;53.596;22.520;2024-02-16T04:27:50;6.90;99.90
20400;DHT22;10359;53.596;22.520;2024-02-16T04:30:40;7.00;99.90
20400;DHT22;10359;53.596;22.520;2024-02-16T04:33:30;7.00;99.90
20400;DHT22;10359;53.596;22.520;2024-02-16T04:36:20;6.80;99.90
20400;DHT22;10359;53.596;22.520;2024-02-16T04:39:11;6.90;99.90
20400;DHT22;10359;53.596;22.520;2024-02-16T04:42:04;6.90;99.90
20400;DHT22;10359;53.596;22.520;2024-02-16T04:44:55;6.90;99.90
20400;DHT22;10359;53.596;22.520;2024-02-16T04:47:45;7.00;99.90
20400;DHT22;10359;53.596;22.520;2024-02-16T04:50:36;6.90;99.90
20400;DHT22;10359;53.596;22.520;2024-02-16T04:53:27;6.90;99.90
20400;DHT22;10359;53.596;22.520;2024-02-16T04:56:17;6.90;99.90
20400;DHT22;10359;53.596;22.520;2024-02-16T04:59:07;6.90;99.90
20400;DHT22;10359;53.596;22.520;2024-02-16T05:01:56;6.90;99.90
20400;DHT22;10359;53.596;22.520;2024-02-16T05:04:46;6.90;99.90
20400;DHT22;10359;53.596;22.520;2024-02-16T05:07:36;6.90;99.90
20400;DHT22;10359;53.596;22.520;2024-02-16T05:10:26;6.80;99.90
20400;DHT22;10359;53.596;22.520;2024-02-16T05:13:17;6.90;99.90
20400;DHT22;10359;53.596;22.520;2024-02-16T05:16:08;6.80;99.90
20400;DHT22;10359;53.596;22.520;2024-02-16T05:18:59;6.80;99.90
20400;DHT22;10359;53.596;22.520;2024-02-16T05:21:49;6.80;99.90
20400;DHT22;10359;53.596;22.520;2024-02-16T05:24:38;6.80;99.90
20400;DHT22;10359;53.596;22.520;2024-02-16T05:27:28;6.80;99.90
20400;DHT22;10359;53.596;22.520;2024-02-16T05:30:19;6.80;99.90
20400;DHT22;10359;53.596;22.520;2024-02-16T05:33:09;6.90;99.90
20400;DHT22;10359;53.596;22.520;2024-02-16T05:35:59;6.80;99.90
20400;DHT22;10359;53.596;22.520;2024-02-16T05:38:52;6.80;99.90
20400;DHT22;10359;53.596;22.520;2024-02-16T05:41:43;6.80;99.90
20400;DHT22;10359;53.596;22.520;2024-02-16T05:44:33;6.80;99.90
20400;DHT22;10359;53.596;22.520;2024-02-16T05:47:27;6.90;99.90
20400;DHT22;10359;53.596;22.520;2024-02-16T05:50:17;6.70;99.90
20400;DHT22;10359;53.596;22.520;2024-02-16T05:53:09;6.80;99.90
20400;DHT22;10359;53.596;22.520;2024-02-16T05:55:59;6.80;99.90
20400;DHT22;10359;53.596;22.520;2024-02-16T05:58:49;6.80;99.90
20400;DHT22;10359;53.596;22.520;2024-02-16T06:01:40;6.90;99.90
20400;DHT22;10359;53.596;22.520;2024-02-16T06:04:31;6.80;99.90
20400;DHT22;10359;53.596;22.520;2024-02-16T06:07:23;6.80;99.90
20400;DHT22;10359;53.596;22.520;2024-02-16T06:10:15;6.90;99.90
20400;DHT22;10359;53.596;22.520;2024-02-16T06:13:06;6.90;99.90
20400;DHT22;10359;53.596;22.520;2024-02-16T06:15:56;6.90;99.90
20400;DHT22;10359;53.596;22.520;2024-02-16T06:18:46;6.80;99.90
20400;DHT22;10359;53.596;22.520;2024-02-16T06:21:39;6.80;99.90
20400;DHT22;10359;53.596;22.520;2024-02-16T06:24:28;6.80;99.90
20400;DHT22;10359;53.596;22.520;2024-02-16T06:27:18;6.80;99.90
20400;DHT22;10359;53.596;22.520;2024-02-16T06:30:08;6.70;99.90
20400;DHT22;10359;53.596;22.520;2024-02-16T06:33:01;6.70;99.90
20400;DHT22;10359;53.596;22.520;2024-02-16T06:35:51;6.60;99.90
20400;DHT22;10359;53.596;22.520;2024-02-16T06:38:42;6.50;99.90
20400;DHT22;10359;53.596;22.520;2024-02-16T06:41:32;6.50;99.90
20400;DHT22;10359;53.596;22.520;2024-02-16T06:44:22;6.50;99.90
20400;DHT22;10359;53.596;22.520;2024-02-16T06:47:11;6.50;99.90
20400;DHT22;10359;53.596;22.520;2024-02-16T06:50:01;6.60;99.90
20400;DHT22;10359;53.596;22.520;2024-02-16T06:52:51;6.70;99.90
20400;DHT22;10359;53.596;22.520;2024-02-16T06:55:44;6.80;99.90
20400;DHT22;10359;53.596;22.520;2024-02-16T06:58:34;6.80;99.90
20400;DHT22;10359;53.596;22.520;2024-02-16T07:01:24;6.90;99.90
20400;DHT22;10359;53.596;22.520;2024-02-16T07:04:15;6.90;99.90
20400;DHT22;10359;53.596;22.520;2024-02-16T07:07:05;7.00;99.90
20400;DHT22;10359;53.596;22.520;2024-02-16T07:09:56;6.90;99.90
20400;DHT22;10359;53.596;22.520;2024-02-16T07:12:47;6.80;99.90
20400;DHT22;10359;53.596;22.520;2024-02-16T07:15:37;6.80;99.90
20400;DHT22;10359;53.596;22.520;2024-02-16T07:18:28;6.70;99.90
20400;DHT22;10359;53.596;22.520;2024-02-16T07:21:18;6.70;99.90
20400;DHT22;10359;53.596;22.520;2024-02-16T07:24:08;7.00;99.90
20400;DHT22;10359;53.596;22.520;2024-02-16T07:26:58;7.30;99.90
20400;DHT22;10359;53.596;22.520;2024-02-16T07:29:49;7.50;99.90
20400;DHT22;10359;53.596;22.520;2024-02-16T07:32:42;7.70;99.90
20400;DHT22;10359;53.596;22.520;2024-02-16T07:35:33;8.00;99.90
20400;DHT22;10359;53.596;22.520;2024-02-16T07:38:24;8.10;99.90
20400;DHT22;10359;53.596;22.520;2024-02-16T07:41:15;8.00;99.90
20400;DHT22;10359;53.596;22.520;2024-02-16T07:44:07;7.90;99.90
20400;DHT22;10359;53.596;22.520;2024-02-16T07:46:58;7.80;99.90
20400;DHT22;10359;53.596;22.520;2024-02-16T07:49:48;7.60;99.90
20400;DHT22;10359;53.596;22.520;2024-02-16T07:52:38;7.50;99.90
20400;DHT22;10359;53.596;22.520;2024-02-16T07:55:28;7.50;99.90
20400;DHT22;10359;53.596;22.520;2024-02-16T07:58:18;7.20;99.90
20400;DHT22;10359;53.596;22.520;2024-02-16T08:01:08;7.10;99.90
20400;DHT22;10359;53.596;22.520;2024-02-16T08:04:00;7.00;99.90
20400;DHT22;10359;53.596;22.520;2024-02-16T08:06:53;6.90;99.90
20400;DHT22;10359;53.596;22.520;2024-02-16T08:09:44;6.80;99.90
20400;DHT22;10359;53.596;22.520;2024-02-16T08:12:38;6.80;99.90
20400;DHT22;10359;53.596;22.520;2024-02-16T08:15:29;6.80;99.90
20400;DHT22;10359;53.596;22.520;2024-02-16T08:18:20;6.80;99.90
20400;DHT22;10359;53.596;22.520;2024-02-16T08:21:11;6.90;99.90
20400;DHT22;10359;53.596;22.520;2024-02-16T08:24:00;6.90;99.90
20400;DHT22;10359;53.596;22.520;2024-02-16T08:26:51;7.00;99.90
20400;DHT22;10359;53.596;22.520;2024-02-16T08:29:41;7.00;99.90
20400;DHT22;10359;53.596;22.520;2024-02-16T08:32:31;7.20;99.90
20400;DHT22;10359;53.596;22.520;2024-02-16T08:35:24;7.40;99.90
20400;DHT22;10359;53.596;22.520;2024-02-16T08:38:15;7.60;99.90
20400;DHT22;10359;53.596;22.520;2024-02-16T08:41:05;7.80;99.90
20400;DHT22;10359;53.596;22.520;2024-02-16T08:43:56;8.10;99.90
20400;DHT22;10359;53.596;22.520;2024-02-16T08:46:46;8.30;99.90
20400;DHT22;10359;53.596;22.520;2024-02-16T08:49:37;8.50;99.90
20400;DHT22;10359;53.596;22.520;2024-02-16T08:52:27;8.50;99.90
20400;DHT22;10359;53.596;22.520;2024-02-16T08:55:18;8.50;99.90
20400;DHT22;10359;53.596;22.520;2024-02-16T08:58:10;8.40;99.90
20400;DHT22;10359;53.596;22.520;2024-02-16T09:01:06;8.50;99.90
20400;DHT22;10359;53.596;22.520;2024-02-16T09:04:00;8.60;99.90
20400;DHT22;10359;53.596;22.520;2024-02-16T09:06:50;8.70;99.90
20400;DHT22;10359;53.596;22.520;2024-02-16T09:09:39;8.80;99.90
20400;DHT22;10359;53.596;22.520;2024-02-16T09:12:30;9.00;99.90
20400;DHT22;10359;53.596;22.520;2024-02-16T09:15:20;9.20;99.90
20400;DHT22;10359;53.596;22.520;2024-02-16T09:18:10;9.50;99.90
20400;DHT22;10359;53.596;22.520;2024-02-16T09:20:59;9.50;99.90
20400;DHT22;10359;53.596;22.520;2024-02-16T09:23:49;9.80;99.90
20400;DHT22;10359;53.596;22.520;2024-02-16T09:26:39;9.90;99.90
20400;DHT22;10359;53.596;22.520;2024-02-16T09:29:31;10.20;99.90
20400;DHT22;10359;53.596;22.520;2024-02-16T09:32:23;10.20;99.90
20400;DHT22;10359;53.596;22.520;2024-02-16T09:35:15;10.10;99.90
20400;DHT22;10359;53.596;22.520;2024-02-16T09:38:07;9.80;99.90
20400;DHT22;10359;53.596;22.520;2024-02-16T09:40:58;9.40;99.90
20400;DHT22;10359;53.596;22.520;2024-02-16T09:43:49;9.40;99.90
20400;DHT22;10359;53.596;22.520;2024-02-16T09:46:45;9.50;99.90
20400;DHT22;10359;53.596;22.520;2024-02-16T09:49:37;9.70;99.90
20400;DHT22;10359;53.596;22.520;2024-02-16T09:52:28;9.60;99.90
20400;DHT22;10359;53.596;22.520;2024-02-16T09:55:18;9.70;99.90
20400;DHT22;10359;53.596;22.520;2024-02-16T09:58:07;9.90;99.90
20400;DHT22;10359;53.596;22.520;2024-02-16T10:00:57;10.00;99.90
20400;DHT22;10359;53.596;22.520;2024-02-16T10:03:48;10.10;99.90
20400;DHT22;10359;53.596;22.520;2024-02-16T10:06:48;9.80;99.90
20400;DHT22;10359;53.596;22.520;2024-02-16T10:09:38;9.80;99.90
20400;DHT22;10359;53.596;22.520;2024-02-16T10:12:30;9.70;99.90
20400;DHT22;10359;53.596;22.520;2024-02-16T10:15:20;9.80;99.90
20400;DHT22;10359;53.596;22.520;2024-02-16T10:18:10;9.80;99.90
20400;DHT22;10359;53.596;22.520;2024-02-16T10:21:03;9.70;99.90
20400;DHT22;10359;53.596;22.520;2024-02-16T10:24:00;9.60;99.90
20400;DHT22;10359;53.596;22.520;2024-02-16T10:26:50;9.70;99.90
20400;DHT22;10359;53.596;22.520;2024-02-16T10:29:40;9.80;99.90
20400;DHT22;10359;53.596;22.520;2024-02-16T10:32:32;9.80;99.90
20400;DHT22;10359;53.596;22.520;2024-02-16T10:35:23;9.80;99.90
20400;DHT22;10359;53.596;22.520;2024-02-16T10:38:17;9.80;99.90
20400;DHT22;10359;53.596;22.520;2024-02-16T10:41:11;9.90;99.90
20400;DHT22;10359;53.596;22.520;2024-02-16T10:44:01;10.00;99.90
20400;DHT22;10359;53.596;22.520;2024-02-16T10:46:52;10.10;99.90
20400;DHT22;10359;53.596;22.520;2024-02-16T10:49:45;10.10;99.90
20400;DHT22;10359;53.596;22.520;2024-02-16T10:52:37;10.10;99.90
20400;DHT22;10359;53.596;22.520;2024-02-16T10:55:30;10.10;99.90
20400;DHT22;10359;53.596;22.520;2024-02-16T10:58:20;10.10;99.90
20400;DHT22;10359;53.596;22.520;2024-02-16T11:01:11;10.10;99.90
20400;DHT22;10359;53.596;22.520;2024-02-16T11:04:05;10.10;99.90
20400;DHT22;10359;53.596;22.520;2024-02-16T11:07:12;10.20;99.90
20400;DHT22;10359;53.596;22.520;2024-02-16T11:10:02;10.40;99.90
20400;DHT22;10359;53.596;22.520;2024-02-16T11:12:54;10.50;99.90
20400;DHT22;10359;53.596;22.520;2024-02-16T11:19:29;10.50;99.90
20400;DHT22;10359;53.596;22.520;2024-02-16T11:26:25;10.60;99.90
20400;DHT22;10359;53.596;22.520;2024-02-16T11:33:17;10.70;99.90
20400;DHT22;10359;53.596;22.520;2024-02-16T11:40:12;10.80;99.90
20400;DHT22;10359;53.596;22.520;2024-02-16T11:47:03;10.80;99.90
20400;DHT22;10359;53.596;22.520;2024-02-16T11:53:40;10.90;99.90
20400;DHT22;10359;53.596;22.520;2024-02-16T12:00:31;11.00;99.90
20400;DHT22;10359;53.596;22.520;2024-02-16T12:07:22;11.00;99.90
20400;DHT22;10359;53.596;22.520;2024-02-16T12:14:13;11.10;99.90
20400;DHT22;10359;53.596;22.520;2024-02-16T12:21:06;11.00;99.90
20400;DHT22;10359;53.596;22.520;2024-02-16T12:27:58;11.00;99.90
20400;DHT22;10359;53.596;22.520;2024-02-16T12:34:50;10.90;99.90
20400;DHT22;10359;53.596;22.520;2024-02-16T12:41:23;10.90;99.90
20400;DHT22;10359;53.596;22.520;2024-02-16T12:47:57;10.90;99.90
20400;DHT22;10359;53.596;22.520;2024-02-16T12:54:32;10.90;99.90
20400;DHT22;10359;53.596;22.520;2024-02-16T13:01:06;10.80;99.90
20400;DHT22;10359;53.596;22.520;2024-02-16T13:11:56;10.70;99.90
20400;DHT22;10359;53.596;22.520;2024-02-16T13:18:47;10.60;99.90
20400;DHT22;10359;53.596;22.520;2024-02-16T13:25:38;10.50;99.90
20400;DHT22;10359;53.596;22.520;2024-02-16T13:32:31;10.50;99.90
20400;DHT22;10359;53.596;22.520;2024-02-16T13:35:30;10.50;99.90
20400;DHT22;10359;53.596;22.520;2024-02-16T13:38:42;10.50;99.90
20400;DHT22;10359;53.596;22.520;2024-02-16T13:45:48;10.50;99.90
20400;DHT22;10359;53.596;22.520;2024-02-16T13:56:26;10.40;99.90
20400;DHT22;10359;53.596;22.520;2024-02-16T14:02:59;10.20;99.90
20400;DHT22;10359;53.596;22.520;2024-02-16T14:09:33;10.10;99.90
20400;DHT22;10359;53.596;22.520;2024-02-16T14:16:24;10.00;99.90
20400;DHT22;10359;53.596;22.520;2024-02-16T14:23:15;10.00;99.90
20400;DHT22;10359;53.596;22.520;2024-02-16T14:30:07;9.90;99.90
20400;DHT22;10359;53.596;22.520;2024-02-16T14:36:59;9.80;99.90
20400;DHT22;10359;53.596;22.520;2024-02-16T14:43:50;9.70;99.90
20400;DHT22;10359;53.596;22.520;2024-02-16T14:50:23;9.60;99.90
20400;DHT22;10359;53.596;22.520;2024-02-16T14:57:15;9.40;99.90
20400;DHT22;10359;53.596;22.520;2024-02-16T15:04:09;9.20;99.90
20400;DHT22;10359;53.596;22.520;2024-02-16T15:11:00;9.00;99.90
20400;DHT22;10359;53.596;22.520;2024-02-16T15:17:53;8.70;99.90
20400;DHT22;10359;53.596;22.520;2024-02-16T15:24:27;8.50;99.90
20400;DHT22;10359;53.596;22.520;2024-02-16T15:31:18;8.20;99.90
20400;DHT22;10359;53.596;22.520;2024-02-16T15:38:23;8.00;99.90
20400;DHT22;10359;53.596;22.520;2024-02-16T15:41:16;7.90;99.90
20400;DHT22;10359;53.596;22.520;2024-02-16T15:47:49;7.80;99.90
20400;DHT22;10359;53.596;22.520;2024-02-16T15:54:42;7.60;99.90
20400;DHT22;10359;53.596;22.520;2024-02-16T16:01:33;7.40;99.90
20400;DHT22;10359;53.596;22.520;2024-02-16T16:04:25;7.30;99.90
20400;DHT22;10359;53.596;22.520;2024-02-16T16:11:00;7.30;99.90
20400;DHT22;10359;53.596;22.520;2024-02-16T16:17:52;7.20;99.90
20400;DHT22;10359;53.596;22.520;2024-02-16T16:24:26;7.10;99.90
20400;DHT22;10359;53.596;22.520;2024-02-16T16:35:02;6.90;99.90
20400;DHT22;10359;53.596;22.520;2024-02-16T16:45:27;6.80;99.90
20400;DHT22;10359;53.596;22.520;2024-02-16T16:52:05;6.80;99.90
20400;DHT22;10359;53.596;22.520;2024-02-16T16:58:56;6.70;99.90
20400;DHT22;10359;53.596;22.520;2024-02-16T17:05:47;6.70;99.90
20400;DHT22;10359;53.596;22.520;2024-02-16T17:12:51;6.60;99.90
20400;DHT22;10359;53.596;22.520;2024-02-16T17:19:42;6.50;99.90
20400;DHT22;10359;53.596;22.520;2024-02-16T17:26:35;6.50;99.90
20400;DHT22;10359;53.596;22.520;2024-02-16T17:33:27;6.40;99.90
20400;DHT22;10359;53.596;22.520;2024-02-16T17:40:20;6.40;99.90
20400;DHT22;10359;53.596;22.520;2024-02-16T17:47:10;6.40;99.90
20400;DHT22;10359;53.596;22.520;2024-02-16T17:53:45;6.30;99.90
20400;DHT22;10359;53.596;22.520;2024-02-16T18:00:35;6.20;99.90
20400;DHT22;10359;53.596;22.520;2024-02-16T18:10:56;6.10;99.90
20400;DHT22;10359;53.596;22.520;2024-02-16T18:21:31;6.00;99.90
20400;DHT22;10359;53.596;22.520;2024-02-16T18:28:06;5.80;99.90
20400;DHT22;10359;53.596;22.520;2024-02-16T18:34:57;5.80;99.90
20400;DHT22;10359;53.596;22.520;2024-02-16T18:41:48;5.70;1.00
20400;DHT22;10359;53.596;22.520;2024-02-16T18:48:23;5.70;1.00
20400;DHT22;10359;53.596;22.520;2024-02-16T18:54:59;5.60;1.00
20400;DHT22;10359;53.596;22.520;2024-02-16T19:01:49;5.50;1.00
20400;DHT22;10359;53.596;22.520;2024-02-16T19:08:44;5.40;1.00
20400;DHT22;10359;53.596;22.520;2024-02-16T19:15:35;5.40;1.00
20400;DHT22;10359;53.596;22.520;2024-02-16T19:22:25;5.30;1.00
20400;DHT22;10359;53.596;22.520;2024-02-16T19:29:17;5.20;1.00
20400;DHT22;10359;53.596;22.520;2024-02-16T19:36:09;5.10;1.00
20400;DHT22;10359;53.596;22.520;2024-02-16T19:43:02;5.00;1.00
20400;DHT22;10359;53.596;22.520;2024-02-16T19:49:54;5.00;1.00
20400;DHT22;10359;53.596;22.520;2024-02-16T19:56:44;4.80;1.00
20400;DHT22;10359;53.596;22.520;2024-02-16T20:03:20;4.70;1.00
20400;DHT22;10359;53.596;22.520;2024-02-16T20:13:56;4.50;1.00
20400;DHT22;10359;53.596;22.520;2024-02-16T20:20:47;4.40;1.00
20400;DHT22;10359;53.596;22.520;2024-02-16T20:27:20;4.30;1.00
20400;DHT22;10359;53.596;22.520;2024-02-16T20:33:56;4.30;1.00
20400;DHT22;10359;53.596;22.520;2024-02-16T20:40:47;4.20;1.00
20400;DHT22;10359;53.596;22.520;2024-02-16T20:47:37;4.20;1.00
20400;DHT22;10359;53.596;22.520;2024-02-16T20:54:30;4.10;1.00
20400;DHT22;10359;53.596;22.520;2024-02-16T21:01:22;4.00;1.00
20400;DHT22;10359;53.596;22.520;2024-02-16T21:08:13;3.90;1.00
20400;DHT22;10359;53.596;22.520;2024-02-16T21:15:06;3.90;1.00
20400;DHT22;10359;53.596;22.520;2024-02-16T21:21:41;3.90;1.00
20400;DHT22;10359;53.596;22.520;2024-02-16T21:28:34;3.80;1.00
20400;DHT22;10359;53.596;22.520;2024-02-16T21:39:29;3.80;1.00
20400;DHT22;10359;53.596;22.520;2024-02-16T21:46:27;3.90;1.00
20400;DHT22;10359;53.596;22.520;2024-02-16T21:53:23;3.80;1.00
20400;DHT22;10359;53.596;22.520;2024-02-16T22:08:02;3.80;1.00
20400;DHT22;10359;53.596;22.520;2024-02-16T22:14:54;3.80;1.00
20400;DHT22;10359;53.596;22.520;2024-02-16T22:21:44;3.70;1.00
20400;DHT22;10359;53.596;22.520;2024-02-16T22:28:20;3.70;1.00
20400;DHT22;10359;53.596;22.520;2024-02-16T22:35:35;3.60;1.00
20400;DHT22;10359;53.596;22.520;2024-02-16T22:42:26;3.50;1.00
20400;DHT22;10359;53.596;22.520;2024-02-16T22:49:21;3.40;1.00
20400;DHT22;10359;53.596;22.520;2024-02-16T22:56:12;3.50;1.00
20400;DHT22;10359;53.596;22.520;2024-02-16T23:03:05;3.40;1.00
20400;DHT22;10359;53.596;22.520;2024-02-16T23:09:57;3.40;1.00
20400;DHT22;10359;53.596;22.520;2024-02-16T23:16:51;3.50;1.00
20400;DHT22;10359;53.596;22.520;2024-02-16T23:23:42;3.60;1.00
20400;DHT22;10359;53.596;22.520;2024-02-16T23:34:22;3.70;1.00
20400;DHT22;10359;53.596;22.520;2024-02-16T23:41:15;3.80;1.00
20400;DHT22;10359;53.596;22.520;2024-02-16T23:48:07;3.90;1.00
20400;DHT22;10359;53.596;22.520;2024-02-16T23:55:00;4.10;1.00
20400;DHT22;10359;53.596;22.520;2024-02-16T23:58:09;4.20;1.00
